sensor_id;sensor_type;location;lat;lon;timestamp;temperature;humidity
68813;DHT22;55808;48.112;11.552;2022-08-02T00:01:44;17.20;99.90
68813;DHT22;55808;48.112;11.552;2022-08-02T00:04:10;17.30;99.90
68813;DHT22;55808;48.112;11.552;2022-08-02T00:06:36;17.30;99.90
68813;DHT22;55808;48.112;11.552;2022-08-02T00:09:03;17.30;99.90
68813;DHT22;55808;48.112;11.552;2022-08-02T00:11:29;17.40;99.90
68813;DHT22;55808;48.112;11.552;2022-08-02T00:13:54;17.30;99.90
68813;DHT22;55808;48.112;11.552;2022-08-02T00:16:20;17.40;99.90
68813;DHT22;55808;48.112;11.552;2022-08-02T00:18:46;17.30;99.90
68813;DHT22;55808;48.112;11.552;2022-08-02T00:21:12;17.20;99.90
68813;DHT22;55808;48.112;11.552;2022-08-02T00:23:37;17.10;99.90
68813;DHT22;55808;48.112;11.552;2022-08-02T00:26:03;17.20;99.90
68813;DHT22;55808;48.112;11.552;2022-08-02T00:28:32;17.20;99.90
68813;DHT22;55808;48.112;11.552;2022-08-02T00:30:57;17.30;99.90
68813;DHT22;55808;48.112;11.552;2022-08-02T00:33:24;17.30;99.90
68813;DHT22;55808;48.112;11.552;2022-08-02T00:35:50;17.20;99.90
68813;DHT22;55808;48.112;11.552;2022-08-02T00:38:15;17.30;99.90
68813;DHT22;55808;48.112;11.552;2022-08-02T00:40:47;17.20;99.90
68813;DHT22;55808;48.112;11.552;2022-08-02T00:43:13;17.30;99.90
68813;DHT22;55808;48.112;11.552;2022-08-02T00:45:40;17.30;99.90
68813;DHT22;55808;48.112;11.552;2022-08-02T00:48:08;17.40;99.90
68813;DHT22;55808;48.112;11.552;2022-08-02T00:50:35;17.30;99.90
68813;DHT22;55808;48.112;11.552;2022-08-02T00:53:01;17.40;99.90
68813;DHT22;55808;48.112;11.552;2022-08-02T00:55:28;17.40;99.90
68813;DHT22;55808;48.112;11.552;2022-08-02T00:57:53;17.40;99.90
68813;DHT22;55808;48.112;11.552;2022-08-02T01:00:20;17.40;99.90
68813;DHT22;55808;48.112;11.552;2022-08-02T01:02:46;17.40;99.90
68813;DHT22;55808;48.112;11.552;2022-08-02T01:05:12;17.30;99.90
68813;DHT22;55808;48.112;11.552;2022-08-02T01:07:37;17.30;99.90
68813;DHT22;55808;48.112;11.552;2022-08-02T01:10:04;17.30;99.90
68813;DHT22;55808;48.112;11.552;2022-08-02T01:12:30;17.40;99.90
68813;DHT22;55808;48.112;11.552;2022-08-02T01:14:59;17.40;99.90
68813;DHT22;55808;48.112;11.552;2022-08-02T01:17:43;17.40;99.90
68813;DHT22;55808;48.112;11.552;2022-08-02T01:26:17;17.30;99.90
68813;DHT22;55808;48.112;11.552;2022-08-02T01:31:31;17.20;99.90
68813;DHT22;55808;48.112;11.552;2022-08-02T01:34:09;17.20;99.90
68813;DHT22;55808;48.112;11.552;2022-08-02T01:36:39;17.20;99.90
68813;DHT22;55808;48.112;11.552;2022-08-02T01:39:08;17.20;99.90
68813;DHT22;55808;48.112;11.552;2022-08-02T01:41:36;17.20;99.90
68813;DHT22;55808;48.112;11.552;2022-08-02T01:44:04;17.20;99.90
68813;DHT22;55808;48.112;11.552;2022-08-02T01:46:32;17.10;99.90
68813;DHT22;55808;48.112;11.552;2022-08-02T01:49:02;17.10;99.90
68813;DHT22;55808;48.112;11.552;2022-08-02T01:51:28;17.10;99.90
68813;DHT22;55808;48.112;11.552;2022-08-02T01:54:18;17.10;99.90
68813;DHT22;55808;48.112;11.552;2022-08-02T01:56:44;17.00;99.90
68813;DHT22;55808;48.112;11.552;2022-08-02T01:59:13;17.00;99.90
68813;DHT22;55808;48.112;11.552;2022-08-02T02:01:40;17.00;99.90
68813;DHT22;55808;48.112;11.552;2022-08-02T02:04:08;17.10;99.90
68813;DHT22;55808;48.112;11.552;2022-08-02T02:06:36;17.10;99.90
68813;DHT22;55808;48.112;11.552;2022-08-02T02:09:03;16.90;99.90
68813;DHT22;55808;48.112;11.552;2022-08-02T02:11:30;16.90;99.90
68813;DHT22;55808;48.112;11.552;2022-08-02T02:14:01;16.90;99.90
68813;DHT22;55808;48.112;11.552;2022-08-02T02:16:28;16.90;99.90
68813;DHT22;55808;48.112;11.552;2022-08-02T02:18:56;17.00;99.90
68813;DHT22;55808;48.112;11.552;2022-08-02T02:21:24;17.00;99.90
68813;DHT22;55808;48.112;11.552;2022-08-02T02:23:49;16.90;99.90
68813;DHT22;55808;48.112;11.552;2022-08-02T02:26:16;17.00;99.90
68813;DHT22;55808;48.112;11.552;2022-08-02T02:28:46;16.80;99.90
68813;DHT22;55808;48.112;11.552;2022-08-02T02:31:18;17.00;99.90
68813;DHT22;55808;48.112;11.552;2022-08-02T02:33:51;16.90;99.90
68813;DHT22;55808;48.112;11.552;2022-08-02T02:36:21;16.90;99.90
68813;DHT22;55808;48.112;11.552;2022-08-02T02:38:49;17.00;99.90
68813;DHT22;55808;48.112;11.552;2022-08-02T02:41:18;17.00;99.90
68813;DHT22;55808;48.112;11.552;2022-08-02T02:43:44;16.90;99.90
68813;DHT22;55808;48.112;11.552;2022-08-02T02:46:12;17.00;99.90
68813;DHT22;55808;48.112;11.552;2022-08-02T02:48:38;17.00;99.90
68813;DHT22;55808;48.112;11.552;2022-08-02T02:51:05;16.90;99.90
68813;DHT22;55808;48.112;11.552;2022-08-02T02:53:34;17.00;99.90
68813;DHT22;55808;48.112;11.552;2022-08-02T02:56:01;17.00;99.90
68813;DHT22;55808;48.112;11.552;2022-08-02T02:58:27;17.00;99.90
68813;DHT22;55808;48.112;11.552;2022-08-02T03:00:53;17.00;99.90
68813;DHT22;55808;48.112;11.552;2022-08-02T03:03:37;16.80;99.90
68813;DHT22;55808;48.112;11.552;2022-08-02T03:06:04;17.00;99.90
68813;DHT22;55808;48.112;11.552;2022-08-02T03:08:30;17.00;99.90
68813;DHT22;55808;48.112;11.552;2022-08-02T03:10:56;17.00;99.90
68813;DHT22;55808;48.112;11.552;2022-08-02T03:13:22;17.00;99.90
68813;DHT22;55808;48.112;11.552;2022-08-02T03:15:51;17.00;99.90
68813;DHT22;55808;48.112;11.552;2022-08-02T03:18:36;16.90;99.90
68813;DHT22;55808;48.112;11.552;2022-08-02T03:21:10;16.90;99.90
68813;DHT22;55808;48.112;11.552;2022-08-02T03:23:37;16.90;99.90
68813;DHT22;55808;48.112;11.552;2022-08-02T03:26:03;16.90;99.90
68813;DHT22;55808;48.112;11.552;2022-08-02T03:28:29;16.80;99.90
68813;DHT22;55808;48.112;11.552;2022-08-02T03:30:55;16.80;99.90
68813;DHT22;55808;48.112;11.552;2022-08-02T03:33:23;16.80;99.90
68813;DHT22;55808;48.112;11.552;2022-08-02T03:35:51;16.90;99.90
68813;DHT22;55808;48.112;11.552;2022-08-02T03:38:19;16.90;99.90
68813;DHT22;55808;48.112;11.552;2022-08-02T03:40:46;16.90;99.90
68813;DHT22;55808;48.112;11.552;2022-08-02T03:43:13;17.00;99.90
68813;DHT22;55808;48.112;11.552;2022-08-02T03:45:42;17.00;99.90
68813;DHT22;55808;48.112;11.552;2022-08-02T03:48:10;16.90;99.90
68813;DHT22;55808;48.112;11.552;2022-08-02T03:50:36;16.90;99.90
68813;DHT22;55808;48.112;11.552;2022-08-02T03:53:04;16.90;99.90
68813;DHT22;55808;48.112;11.552;2022-08-02T03:55:31;16.80;99.90
68813;DHT22;55808;48.112;11.552;2022-08-02T03:57:57;16.80;99.90
68813;DHT22;55808;48.112;11.552;2022-08-02T04:00:23;16.80;99.90
68813;DHT22;55808;48.112;11.552;2022-08-02T04:02:49;16.90;99.90
68813;DHT22;55808;48.112;11.552;2022-08-02T04:05:15;16.90;99.90
68813;DHT22;55808;48.112;11.552;2022-08-02T04:07:41;16.80;99.90
68813;DHT22;55808;48.112;11.552;2022-08-02T04:10:08;16.80;99.90
68813;DHT22;55808;48.112;11.552;2022-08-02T04:12:34;16.80;99.90
68813;DHT22;55808;48.112;11.552;2022-08-02T04:15:02;16.80;99.90
68813;DHT22;55808;48.112;11.552;2022-08-02T04:17:31;16.70;99.90
68813;DHT22;55808;48.112;11.552;2022-08-02T04:20:04;16.70;99.90
68813;DHT22;55808;48.112;11.552;2022-08-02T04:22:38;16.70;99.90
68813;DHT22;55808;48.112;11.552;2022-08-02T04:25:06;16.70;99.90
68813;DHT22;55808;48.112;11.552;2022-08-02T04:27:34;16.70;99.90
68813;DHT22;55808;48.112;11.552;2022-08-02T04:30:02;16.70;99.90
68813;DHT22;55808;48.112;11.552;2022-08-02T04:32:30;16.70;99.90
68813;DHT22;55808;48.112;11.552;2022-08-02T04:34:57;16.80;99.90
68813;DHT22;55808;48.112;11.552;2022-08-02T04:37:23;16.80;99.90
68813;DHT22;55808;48.112;11.552;2022-08-02T04:39:49;16.80;99.90
68813;DHT22;55808;48.112;11.552;2022-08-02T04:42:25;16.80;99.90
68813;DHT22;55808;48.112;11.552;2022-08-02T04:44:51;16.90;99.90
68813;DHT22;55808;48.112;11.552;2022-08-02T04:47:18;16.80;99.90
68813;DHT22;55808;48.112;11.552;2022-08-02T04:49:45;16.90;99.90
68813;DHT22;55808;48.112;11.552;2022-08-02T04:52:11;16.90;99.90
68813;DHT22;55808;48.112;11.552;2022-08-02T04:54:37;16.90;99.90
68813;DHT22;55808;48.112;11.552;2022-08-02T04:57:03;16.90;99.90
68813;DHT22;55808;48.112;11.552;2022-08-02T04:59:49;16.80;99.90
68813;DHT22;55808;48.112;11.552;2022-08-02T05:02:15;16.80;99.90
68813;DHT22;55808;48.112;11.552;2022-08-02T05:04:40;16.90;99.90
68813;DHT22;55808;48.112;11.552;2022-08-02T05:07:06;16.80;99.90
68813;DHT22;55808;48.112;11.552;2022-08-02T05:09:32;16.90;99.90
68813;DHT22;55808;48.112;11.552;2022-08-02T05:11:57;16.90;99.90
68813;DHT22;55808;48.112;11.552;2022-08-02T05:14:23;16.90;99.90
68813;DHT22;55808;48.112;11.552;2022-08-02T05:16:48;16.80;99.90
68813;DHT22;55808;48.112;11.552;2022-08-02T05:19:14;16.90;99.90
68813;DHT22;55808;48.112;11.552;2022-08-02T05:21:40;16.90;99.90
68813;DHT22;55808;48.112;11.552;2022-08-02T05:24:06;16.80;99.90
68813;DHT22;55808;48.112;11.552;2022-08-02T05:26:31;16.80;99.90
68813;DHT22;55808;48.112;11.552;2022-08-02T05:28:57;16.80;99.90
68813;DHT22;55808;48.112;11.552;2022-08-02T05:31:23;16.80;99.90
68813;DHT22;55808;48.112;11.552;2022-08-02T05:33:48;16.90;99.90
68813;DHT22;55808;48.112;11.552;2022-08-02T05:36:14;17.00;99.90
68813;DHT22;55808;48.112;11.552;2022-08-02T05:38:39;17.10;99.90
68813;DHT22;55808;48.112;11.552;2022-08-02T05:41:05;17.20;99.90
68813;DHT22;55808;48.112;11.552;2022-08-02T05:43:31;17.20;99.90
68813;DHT22;55808;48.112;11.552;2022-08-02T05:45:57;17.10;99.90
68813;DHT22;55808;48.112;11.552;2022-08-02T05:48:23;17.20;99.90
68813;DHT22;55808;48.112;11.552;2022-08-02T05:50:54;17.20;99.90
68813;DHT22;55808;48.112;11.552;2022-08-02T05:56:16;17.40;99.90
68813;DHT22;55808;48.112;11.552;2022-08-02T05:59:11;17.40;99.90
68813;DHT22;55808;48.112;11.552;2022-08-02T06:01:39;17.50;99.90
68813;DHT22;55808;48.112;11.552;2022-08-02T06:04:09;17.70;99.90
68813;DHT22;55808;48.112;11.552;2022-08-02T06:06:36;17.70;99.90
68813;DHT22;55808;48.112;11.552;2022-08-02T06:09:13;17.80;99.90
68813;DHT22;55808;48.112;11.552;2022-08-02T06:11:45;17.80;99.90
68813;DHT22;55808;48.112;11.552;2022-08-02T06:14:11;17.90;99.90
68813;DHT22;55808;48.112;11.552;2022-08-02T06:16:38;18.00;99.90
68813;DHT22;55808;48.112;11.552;2022-08-02T06:19:04;18.00;99.90
68813;DHT22;55808;48.112;11.552;2022-08-02T06:21:30;18.00;99.90
68813;DHT22;55808;48.112;11.552;2022-08-02T06:23:57;18.10;99.90
68813;DHT22;55808;48.112;11.552;2022-08-02T06:26:23;18.10;99.90
68813;DHT22;55808;48.112;11.552;2022-08-02T06:28:51;18.20;99.90
68813;DHT22;55808;48.112;11.552;2022-08-02T06:31:18;18.20;99.90
68813;DHT22;55808;48.112;11.552;2022-08-02T06:33:44;18.40;99.90
68813;DHT22;55808;48.112;11.552;2022-08-02T06:39:07;18.50;99.90
68813;DHT22;55808;48.112;11.552;2022-08-02T06:41:38;18.50;99.90
68813;DHT22;55808;48.112;11.552;2022-08-02T06:44:08;18.50;99.90
68813;DHT22;55808;48.112;11.552;2022-08-02T06:46:34;18.60;99.90
68813;DHT22;55808;48.112;11.552;2022-08-02T06:49:00;18.60;99.90
68813;DHT22;55808;48.112;11.552;2022-08-02T06:51:27;18.70;99.90
68813;DHT22;55808;48.112;11.552;2022-08-02T06:53:53;18.80;99.90
68813;DHT22;55808;48.112;11.552;2022-08-02T06:56:18;18.90;99.90
68813;DHT22;55808;48.112;11.552;2022-08-02T06:58:44;18.90;99.90
68813;DHT22;55808;48.112;11.552;2022-08-02T07:01:11;18.90;99.90
68813;DHT22;55808;48.112;11.552;2022-08-02T07:03:38;19.00;99.90
68813;DHT22;55808;48.112;11.552;2022-08-02T07:06:05;19.10;99.90
68813;DHT22;55808;48.112;11.552;2022-08-02T07:08:34;19.30;99.90
68813;DHT22;55808;48.112;11.552;2022-08-02T07:11:06;19.40;99.90
68813;DHT22;55808;48.112;11.552;2022-08-02T07:13:32;19.50;99.90
68813;DHT22;55808;48.112;11.552;2022-08-02T07:15:58;19.50;99.90
68813;DHT22;55808;48.112;11.552;2022-08-02T07:18:24;19.50;99.90
68813;DHT22;55808;48.112;11.552;2022-08-02T07:20:50;19.70;99.90
68813;DHT22;55808;48.112;11.552;2022-08-02T07:23:16;19.60;99.90
68813;DHT22;55808;48.112;11.552;2022-08-02T07:25:42;19.50;99.90
68813;DHT22;55808;48.112;11.552;2022-08-02T07:28:11;19.60;99.90
68813;DHT22;55808;48.112;11.552;2022-08-02T07:30:37;19.50;99.90
68813;DHT22;55808;48.112;11.552;2022-08-02T07:33:03;19.40;99.90
68813;DHT22;55808;48.112;11.552;2022-08-02T07:35:29;19.40;99.90
68813;DHT22;55808;48.112;11.552;2022-08-02T07:37:54;19.40;99.90
68813;DHT22;55808;48.112;11.552;2022-08-02T07:40:21;19.40;99.90
68813;DHT22;55808;48.112;11.552;2022-08-02T07:42:48;19.30;99.90
68813;DHT22;55808;48.112;11.552;2022-08-02T07:45:16;19.50;99.90
68813;DHT22;55808;48.112;11.552;2022-08-02T07:47:43;19.50;99.90
68813;DHT22;55808;48.112;11.552;2022-08-02T07:50:10;19.70;99.90
68813;DHT22;55808;48.112;11.552;2022-08-02T07:52:36;19.70;99.90
68813;DHT22;55808;48.112;11.552;2022-08-02T07:55:03;19.80;99.90
68813;DHT22;55808;48.112;11.552;2022-08-02T07:57:29;20.00;99.90
68813;DHT22;55808;48.112;11.552;2022-08-02T07:59:55;19.90;99.90
68813;DHT22;55808;48.112;11.552;2022-08-02T08:02:21;20.00;99.90
68813;DHT22;55808;48.112;11.552;2022-08-02T08:04:49;20.10;99.90
68813;DHT22;55808;48.112;11.552;2022-08-02T08:07:15;20.00;99.90
68813;DHT22;55808;48.112;11.552;2022-08-02T08:09:40;20.10;99.90
68813;DHT22;55808;48.112;11.552;2022-08-02T08:12:10;20.10;99.90
68813;DHT22;55808;48.112;11.552;2022-08-02T08:14:37;20.20;99.90
68813;DHT22;55808;48.112;11.552;2022-08-02T08:17:04;20.10;99.90
68813;DHT22;55808;48.112;11.552;2022-08-02T08:19:30;20.10;99.90
68813;DHT22;55808;48.112;11.552;2022-08-02T08:21:56;20.20;99.90
68813;DHT22;55808;48.112;11.552;2022-08-02T08:24:25;20.50;99.90
68813;DHT22;55808;48.112;11.552;2022-08-02T08:26:51;20.30;99.90
68813;DHT22;55808;48.112;11.552;2022-08-02T08:29:17;20.30;99.90
68813;DHT22;55808;48.112;11.552;2022-08-02T08:31:42;20.40;99.90
68813;DHT22;55808;48.112;11.552;2022-08-02T08:34:08;20.40;99.90
68813;DHT22;55808;48.112;11.552;2022-08-02T08:36:34;20.20;99.90
68813;DHT22;55808;48.112;11.552;2022-08-02T08:39:00;20.40;99.90
68813;DHT22;55808;48.112;11.552;2022-08-02T08:41:25;20.50;99.90
68813;DHT22;55808;48.112;11.552;2022-08-02T08:43:51;20.60;99.90
68813;DHT22;55808;48.112;11.552;2022-08-02T08:46:28;20.50;99.90
68813;DHT22;55808;48.112;11.552;2022-08-02T08:49:00;20.60;99.90
68813;DHT22;55808;48.112;11.552;2022-08-02T08:51:30;20.60;99.90
68813;DHT22;55808;48.112;11.552;2022-08-02T08:53:58;20.70;99.90
68813;DHT22;55808;48.112;11.552;2022-08-02T08:56:31;21.00;99.90
68813;DHT22;55808;48.112;11.552;2022-08-02T08:58:58;21.00;99.90
68813;DHT22;55808;48.112;11.552;2022-08-02T09:01:24;21.00;99.90
68813;DHT22;55808;48.112;11.552;2022-08-02T09:03:49;21.20;99.90
68813;DHT22;55808;48.112;11.552;2022-08-02T09:06:15;21.30;99.90
68813;DHT22;55808;48.112;11.552;2022-08-02T09:08:41;21.30;99.90
68813;DHT22;55808;48.112;11.552;2022-08-02T09:11:18;21.20;99.90
68813;DHT22;55808;48.112;11.552;2022-08-02T09:14:00;21.30;99.90
68813;DHT22;55808;48.112;11.552;2022-08-02T09:18:57;21.50;99.90
68813;DHT22;55808;48.112;11.552;2022-08-02T09:21:24;21.60;99.90
68813;DHT22;55808;48.112;11.552;2022-08-02T09:23:58;21.60;99.90
68813;DHT22;55808;48.112;11.552;2022-08-02T09:26:24;21.70;99.90
68813;DHT22;55808;48.112;11.552;2022-08-02T09:28:51;21.80;99.90
68813;DHT22;55808;48.112;11.552;2022-08-02T09:31:22;21.60;99.90
68813;DHT22;55808;48.112;11.552;2022-08-02T09:33:57;21.80;99.90
68813;DHT22;55808;48.112;11.552;2022-08-02T09:36:23;21.60;99.90
68813;DHT22;55808;48.112;11.552;2022-08-02T09:39:00;21.80;99.90
68813;DHT22;55808;48.112;11.552;2022-08-02T09:41:36;22.00;99.90
68813;DHT22;55808;48.112;11.552;2022-08-02T09:44:04;22.00;99.90
68813;DHT22;55808;48.112;11.552;2022-08-02T09:46:33;22.00;99.90
68813;DHT22;55808;48.112;11.552;2022-08-02T09:49:03;22.10;99.90
68813;DHT22;55808;48.112;11.552;2022-08-02T09:51:37;22.10;99.90
68813;DHT22;55808;48.112;11.552;2022-08-02T09:54:05;22.10;99.90
68813;DHT22;55808;48.112;11.552;2022-08-02T09:56:46;22.30;99.90
68813;DHT22;55808;48.112;11.552;2022-08-02T09:59:13;22.30;99.90
68813;DHT22;55808;48.112;11.552;2022-08-02T10:01:40;22.30;99.90
68813;DHT22;55808;48.112;11.552;2022-08-02T10:04:08;22.40;99.90
68813;DHT22;55808;48.112;11.552;2022-08-02T10:06:40;22.50;99.90
68813;DHT22;55808;48.112;11.552;2022-08-02T10:09:07;22.50;99.90
68813;DHT22;55808;48.112;11.552;2022-08-02T10:11:34;22.50;99.90
68813;DHT22;55808;48.112;11.552;2022-08-02T10:14:02;22.60;99.90
68813;DHT22;55808;48.112;11.552;2022-08-02T10:16:29;23.00;99.90
68813;DHT22;55808;48.112;11.552;2022-08-02T10:18:57;23.20;99.90
68813;DHT22;55808;48.112;11.552;2022-08-02T10:21:47;23.10;99.90
68813;DHT22;55808;48.112;11.552;2022-08-02T10:24:21;23.10;99.90
68813;DHT22;55808;48.112;11.552;2022-08-02T10:26:47;23.30;99.90
68813;DHT22;55808;48.112;11.552;2022-08-02T10:29:19;23.20;99.90
68813;DHT22;55808;48.112;11.552;2022-08-02T10:31:55;22.80;99.90
68813;DHT22;55808;48.112;11.552;2022-08-02T10:34:39;23.00;99.90
68813;DHT22;55808;48.112;11.552;2022-08-02T10:37:09;23.40;99.90
68813;DHT22;55808;48.112;11.552;2022-08-02T10:39:45;23.90;99.90
68813;DHT22;55808;48.112;11.552;2022-08-02T10:42:12;24.10;99.90
68813;DHT22;55808;48.112;11.552;2022-08-02T10:44:38;24.80;99.90
68813;DHT22;55808;48.112;11.552;2022-08-02T10:49:53;25.60;95.80
68813;DHT22;55808;48.112;11.552;2022-08-02T10:52:21;26.90;92.70
68813;DHT22;55808;48.112;11.552;2022-08-02T10:57:20;26.50;88.20
68813;DHT22;55808;48.112;11.552;2022-08-02T10:59:47;28.00;88.10
68813;DHT22;55808;48.112;11.552;2022-08-02T11:02:13;27.90;79.00
68813;DHT22;55808;48.112;11.552;2022-08-02T11:07:39;29.00;73.50
68813;DHT22;55808;48.112;11.552;2022-08-02T11:13:09;28.70;71.50
68813;DHT22;55808;48.112;11.552;2022-08-02T11:18:21;28.40;77.40
68813;DHT22;55808;48.112;11.552;2022-08-02T11:20:47;29.10;69.60
68813;DHT22;55808;48.112;11.552;2022-08-02T11:23:37;29.80;70.00
68813;DHT22;55808;48.112;11.552;2022-08-02T11:28:56;29.90;66.20
68813;DHT22;55808;48.112;11.552;2022-08-02T11:31:22;29.50;67.90
68813;DHT22;55808;48.112;11.552;2022-08-02T11:33:50;29.80;66.80
68813;DHT22;55808;48.112;11.552;2022-08-02T11:36:16;30.00;66.20
68813;DHT22;55808;48.112;11.552;2022-08-02T11:38:42;29.60;66.90
68813;DHT22;55808;48.112;11.552;2022-08-02T11:41:09;29.50;65.90
68813;DHT22;55808;48.112;11.552;2022-08-02T11:43:35;29.20;68.60
68813;DHT22;55808;48.112;11.552;2022-08-02T11:46:03;29.80;66.10
68813;DHT22;55808;48.112;11.552;2022-08-02T11:48:40;30.10;64.90
68813;DHT22;55808;48.112;11.552;2022-08-02T11:51:10;30.20;64.60
68813;DHT22;55808;48.112;11.552;2022-08-02T11:53:53;29.80;65.60
68813;DHT22;55808;48.112;11.552;2022-08-02T11:56:27;30.10;63.40
68813;DHT22;55808;48.112;11.552;2022-08-02T11:59:09;30.50;64.60
68813;DHT22;55808;48.112;11.552;2022-08-02T12:01:37;30.20;66.10
68813;DHT22;55808;48.112;11.552;2022-08-02T12:04:05;28.60;66.30
68813;DHT22;55808;48.112;11.552;2022-08-02T12:06:32;27.60;68.80
68813;DHT22;55808;48.112;11.552;2022-08-02T12:11:27;28.00;68.30
68813;DHT22;55808;48.112;11.552;2022-08-02T12:13:53;29.10;68.60
68813;DHT22;55808;48.112;11.552;2022-08-02T12:16:19;29.40;66.30
68813;DHT22;55808;48.112;11.552;2022-08-02T12:19:04;28.90;63.60
68813;DHT22;55808;48.112;11.552;2022-08-02T12:21:45;29.00;63.10
68813;DHT22;55808;48.112;11.552;2022-08-02T12:24:12;29.00;62.50
68813;DHT22;55808;48.112;11.552;2022-08-02T12:26:50;28.10;66.50
68813;DHT22;55808;48.112;11.552;2022-08-02T12:29:16;28.80;63.60
68813;DHT22;55808;48.112;11.552;2022-08-02T12:31:44;29.50;62.40
68813;DHT22;55808;48.112;11.552;2022-08-02T12:34:17;29.90;63.10
68813;DHT22;55808;48.112;11.552;2022-08-02T12:37:03;30.30;62.10
68813;DHT22;55808;48.112;11.552;2022-08-02T12:39:42;29.90;65.40
68813;DHT22;55808;48.112;11.552;2022-08-02T12:42:10;28.40;65.80
68813;DHT22;55808;48.112;11.552;2022-08-02T12:44:38;28.60;68.30
68813;DHT22;55808;48.112;11.552;2022-08-02T12:47:13;29.40;67.70
68813;DHT22;55808;48.112;11.552;2022-08-02T12:49:39;29.30;67.30
68813;DHT22;55808;48.112;11.552;2022-08-02T12:52:22;29.20;64.40
68813;DHT22;55808;48.112;11.552;2022-08-02T12:54:48;28.70;69.40
68813;DHT22;55808;48.112;11.552;2022-08-02T12:57:16;27.90;72.10
68813;DHT22;55808;48.112;11.552;2022-08-02T12:59:48;28.40;71.30
68813;DHT22;55808;48.112;11.552;2022-08-02T13:02:16;28.50;67.80
68813;DHT22;55808;48.112;11.552;2022-08-02T13:04:43;28.90;68.90
68813;DHT22;55808;48.112;11.552;2022-08-02T13:07:09;27.70;66.90
68813;DHT22;55808;48.112;11.552;2022-08-02T13:09:39;26.80;68.90
68813;DHT22;55808;48.112;11.552;2022-08-02T13:12:06;26.60;73.10
68813;DHT22;55808;48.112;11.552;2022-08-02T13:14:33;27.40;68.60
68813;DHT22;55808;48.112;11.552;2022-08-02T13:16:59;28.00;64.90
68813;DHT22;55808;48.112;11.552;2022-08-02T13:19:24;27.90;64.60
68813;DHT22;55808;48.112;11.552;2022-08-02T13:21:50;28.00;66.10
68813;DHT22;55808;48.112;11.552;2022-08-02T13:24:16;28.10;66.90
68813;DHT22;55808;48.112;11.552;2022-08-02T13:26:45;28.40;65.50
68813;DHT22;55808;48.112;11.552;2022-08-02T13:29:11;28.40;65.40
68813;DHT22;55808;48.112;11.552;2022-08-02T13:31:38;28.80;74.40
68813;DHT22;55808;48.112;11.552;2022-08-02T13:34:07;28.70;64.00
68813;DHT22;55808;48.112;11.552;2022-08-02T13:36:34;28.70;67.20
68813;DHT22;55808;48.112;11.552;2022-08-02T13:39:02;28.70;65.40
68813;DHT22;55808;48.112;11.552;2022-08-02T13:41:32;28.60;64.10
68813;DHT22;55808;48.112;11.552;2022-08-02T13:43:57;28.30;67.40
68813;DHT22;55808;48.112;11.552;2022-08-02T13:46:23;28.40;65.00
68813;DHT22;55808;48.112;11.552;2022-08-02T13:48:49;28.50;69.00
68813;DHT22;55808;48.112;11.552;2022-08-02T13:51:14;28.70;63.90
68813;DHT22;55808;48.112;11.552;2022-08-02T13:53:40;28.70;68.60
68813;DHT22;55808;48.112;11.552;2022-08-02T13:56:07;28.80;67.60
68813;DHT22;55808;48.112;11.552;2022-08-02T13:58:32;29.10;67.30
68813;DHT22;55808;48.112;11.552;2022-08-02T14:00:58;29.30;66.60
68813;DHT22;55808;48.112;11.552;2022-08-02T14:03:25;29.30;70.00
68813;DHT22;55808;48.112;11.552;2022-08-02T14:05:50;29.40;71.30
68813;DHT22;55808;48.112;11.552;2022-08-02T14:08:17;29.40;68.10
68813;DHT22;55808;48.112;11.552;2022-08-02T14:10:45;29.80;66.80
68813;DHT22;55808;48.112;11.552;2022-08-02T14:13:10;29.60;68.90
68813;DHT22;55808;48.112;11.552;2022-08-02T14:15:36;29.40;67.30
68813;DHT22;55808;48.112;11.552;2022-08-02T14:18:02;29.30;67.40
68813;DHT22;55808;48.112;11.552;2022-08-02T14:20:27;29.40;69.90
68813;DHT22;55808;48.112;11.552;2022-08-02T14:22:53;29.30;64.00
68813;DHT22;55808;48.112;11.552;2022-08-02T14:25:19;28.50;63.80
68813;DHT22;55808;48.112;11.552;2022-08-02T14:27:45;28.70;63.80
68813;DHT22;55808;48.112;11.552;2022-08-02T14:30:11;28.80;65.40
68813;DHT22;55808;48.112;11.552;2022-08-02T14:32:37;28.30;61.90
68813;DHT22;55808;48.112;11.552;2022-08-02T14:35:03;28.50;63.10
68813;DHT22;55808;48.112;11.552;2022-08-02T14:37:28;28.80;62.10
68813;DHT22;55808;48.112;11.552;2022-08-02T14:39:54;28.30;60.20
68813;DHT22;55808;48.112;11.552;2022-08-02T14:42:20;28.00;62.50
68813;DHT22;55808;48.112;11.552;2022-08-02T14:44:45;27.60;63.40
68813;DHT22;55808;48.112;11.552;2022-08-02T14:47:11;28.20;63.20
68813;DHT22;55808;48.112;11.552;2022-08-02T14:49:37;28.40;62.50
68813;DHT22;55808;48.112;11.552;2022-08-02T14:52:03;27.60;62.90
68813;DHT22;55808;48.112;11.552;2022-08-02T14:54:28;27.70;63.10
68813;DHT22;55808;48.112;11.552;2022-08-02T14:56:57;27.50;62.90
68813;DHT22;55808;48.112;11.552;2022-08-02T14:59:23;27.00;65.00
68813;DHT22;55808;48.112;11.552;2022-08-02T15:01:48;27.20;65.10
68813;DHT22;55808;48.112;11.552;2022-08-02T15:04:14;27.70;63.50
68813;DHT22;55808;48.112;11.552;2022-08-02T15:06:40;28.00;64.10
68813;DHT22;55808;48.112;11.552;2022-08-02T15:09:06;28.10;64.10
68813;DHT22;55808;48.112;11.552;2022-08-02T15:11:32;28.20;62.80
68813;DHT22;55808;48.112;11.552;2022-08-02T15:13:57;28.30;61.50
68813;DHT22;55808;48.112;11.552;2022-08-02T15:16:25;28.60;62.30
68813;DHT22;55808;48.112;11.552;2022-08-02T15:18:50;28.40;61.60
68813;DHT22;55808;48.112;11.552;2022-08-02T15:21:16;28.70;64.70
68813;DHT22;55808;48.112;11.552;2022-08-02T15:23:41;29.00;63.80
68813;DHT22;55808;48.112;11.552;2022-08-02T15:26:07;29.40;63.10
68813;DHT22;55808;48.112;11.552;2022-08-02T15:28:33;29.50;63.00
68813;DHT22;55808;48.112;11.552;2022-08-02T15:30:59;28.80;60.10
68813;DHT22;55808;48.112;11.552;2022-08-02T15:33:25;28.50;60.40
68813;DHT22;55808;48.112;11.552;2022-08-02T15:35:50;28.30;59.00
68813;DHT22;55808;48.112;11.552;2022-08-02T15:38:16;28.10;58.60
68813;DHT22;55808;48.112;11.552;2022-08-02T15:40:42;28.10;59.30
68813;DHT22;55808;48.112;11.552;2022-08-02T15:43:08;28.10;58.40
68813;DHT22;55808;48.112;11.552;2022-08-02T15:45:36;28.00;57.90
68813;DHT22;55808;48.112;11.552;2022-08-02T15:48:03;28.00;59.20
68813;DHT22;55808;48.112;11.552;2022-08-02T15:50:29;27.80;58.00
68813;DHT22;55808;48.112;11.552;2022-08-02T15:52:55;27.90;58.50
68813;DHT22;55808;48.112;11.552;2022-08-02T15:55:23;28.00;58.00
68813;DHT22;55808;48.112;11.552;2022-08-02T15:57:55;28.10;59.30